createdAt,value
2022-11-24T00:01:39.536Z,49.66
2022-11-24T00:06:43.291Z,49.69
2022-11-24T00:11:47.467Z,48.82
2022-11-24T00:16:53.402Z,48.67
2022-11-24T00:21:57.004Z,48.53
2022-11-24T00:27:00.583Z,48.70
2022-11-24T00:32:06.517Z,47.96
2022-11-24T00:37:10.107Z,48.44
2022-11-24T00:42:14.305Z,48.35
2022-11-24T00:47:19.425Z,48.59
2022-11-24T00:52:23.136Z,48.42
2022-11-24T00:57:26.692Z,48.53
2022-11-24T01:02:31.722Z,48.98
2022-11-24T01:07:35.749Z,48.89
2022-11-24T01:12:39.468Z,48.84
2022-11-24T01:17:44.412Z,49.79
2022-11-24T01:22:49.536Z,48.97
2022-11-24T01:27:53.085Z,49.60
2022-11-24T01:32:58.123Z,49.73
2022-11-24T01:38:01.755Z,49.78
2022-11-24T01:43:17.207Z,49.47
2022-11-24T01:48:27.534Z,49.29
2022-11-24T01:53:31.960Z,50.04
2022-11-24T01:58:36.659Z,50.44
2022-11-24T02:03:43.556Z,50.06
2022-11-24T02:08:51.409Z,50.59
2022-11-24T02:13:55.600Z,50.93
2022-11-24T02:19:00.584Z,50.23
2022-11-24T02:24:11.427Z,49.84
2022-11-24T02:29:16.901Z,49.96
2022-11-24T02:34:20.559Z,49.62
2022-11-24T02:39:24.193Z,49.51
2022-11-24T02:44:32.040Z,49.07
2022-11-24T02:49:35.918Z,49.19
2022-11-24T02:54:39.545Z,49.22
2022-11-24T02:59:44.702Z,49.19
2022-11-24T03:04:48.278Z,49.61
2022-11-24T03:09:51.911Z,49.34
2022-11-24T03:14:56.927Z,49.09
2022-11-24T03:20:04.869Z,50.02
2022-11-24T03:25:09.583Z,49.27
2022-11-24T03:30:15.302Z,49.73
2022-11-24T03:35:19.003Z,49.63
2022-11-24T03:40:22.628Z,49.83
2022-11-24T03:45:45.553Z,48.94
2022-11-24T03:50:55.080Z,49.27
2022-11-24T03:55:59.052Z,49.32
2022-11-24T04:01:04.229Z,50.24
2022-11-24T04:06:07.949Z,48.98
2022-11-24T04:11:31.662Z,49.07
2022-11-24T04:16:36.622Z,49.97
2022-11-24T04:21:40.218Z,49.86
2022-11-24T04:26:43.691Z,50.02
2022-11-24T04:31:48.588Z,49.16
2022-11-24T04:36:52.089Z,49.24
2022-11-24T04:41:55.668Z,49.23
2022-11-24T04:47:00.966Z,49.27
2022-11-24T04:52:04.563Z,49.84
2022-11-24T04:57:08.177Z,48.96
2022-11-24T05:02:13.109Z,48.92
2022-11-24T05:07:19.017Z,48.81
2022-11-24T05:12:24.409Z,48.74
2022-11-24T05:17:31.932Z,48.47
2022-11-24T05:22:35.421Z,49.30
2022-11-24T05:27:38.848Z,51.00
2022-11-24T05:32:44.175Z,50.16
2022-11-24T05:37:47.642Z,49.69
2022-11-24T05:42:51.066Z,49.36
2022-11-24T05:47:56.008Z,49.24
2022-11-24T05:53:04.037Z,49.35
2022-11-24T05:58:08.951Z,48.61
2022-11-24T06:03:13.979Z,49.17
2022-11-24T06:08:17.532Z,48.94
2022-11-24T06:13:20.973Z,48.84
2022-11-24T06:18:26.070Z,49.61
2022-11-24T06:23:29.519Z,49.28
2022-11-24T06:28:33.164Z,49.78
2022-11-24T06:33:38.943Z,49.25
2022-11-24T06:38:42.462Z,49.17
2022-11-24T06:43:46.601Z,51.37
2022-11-24T06:48:53.746Z,49.81
2022-11-24T06:53:57.180Z,49.67
2022-11-24T06:59:00.649Z,50.76
2022-11-24T07:04:05.657Z,50.68
2022-11-24T07:09:10.211Z,50.83
2022-11-24T07:14:13.642Z,49.99
2022-11-24T07:19:24.347Z,50.51
2022-11-24T07:24:28.369Z,50.50
2022-11-24T07:29:31.863Z,50.79
2022-11-24T07:34:37.157Z,49.99
2022-11-24T07:39:40.751Z,50.67
2022-11-24T07:44:44.109Z,49.94
2022-11-24T07:49:49.021Z,50.48
2022-11-24T07:54:52.478Z,49.64
2022-11-24T07:59:55.924Z,49.29
2022-11-24T08:05:00.773Z,50.02
2022-11-24T08:10:04.465Z,51.29
2022-11-24T08:15:11.340Z,49.02
2022-11-24T08:20:16.556Z,48.41
2022-11-24T08:25:20.033Z,48.67
2022-11-24T08:30:23.649Z,49.61
2022-11-24T08:35:28.956Z,49.04
2022-11-24T08:40:32.662Z,48.98
2022-11-24T08:45:41.168Z,48.64
2022-11-24T08:50:46.795Z,49.09
2022-11-24T08:55:50.291Z,49.28
2022-11-24T09:00:53.831Z,48.17
2022-11-24T09:05:58.758Z,47.94
2022-11-24T09:11:03.018Z,47.48
2022-11-24T09:16:08.542Z,48.11
2022-11-24T09:21:14.708Z,47.93
2022-11-24T09:26:19.877Z,48.10
2022-11-24T09:31:25.249Z,48.27
2022-11-24T09:36:31.796Z,46.88
2022-11-24T09:41:51.687Z,47.96
2022-11-24T09:47:00.896Z,47.77
2022-11-24T09:52:11.429Z,47.77
2022-11-24T09:57:15.730Z,47.58
2022-11-24T10:02:19.141Z,47.31
2022-11-24T10:07:29.206Z,47.37
2022-11-24T10:12:47.153Z,46.87
2022-11-24T10:18:02.930Z,46.32
2022-11-24T10:23:23.022Z,46.00
2022-11-24T10:28:30.837Z,45.44
2022-11-24T10:33:34.277Z,46.36
2022-11-24T10:38:43.790Z,46.08
2022-11-24T10:43:47.209Z,46.64
2022-11-24T10:48:53.352Z,45.45
2022-11-24T10:54:02.550Z,44.86
2022-11-24T10:59:22.244Z,44.85
2022-11-24T11:04:28.099Z,43.80
2022-11-24T11:09:33.233Z,44.25
2022-11-24T11:14:37.158Z,43.09
2022-11-24T11:20:00.263Z,43.40
2022-11-24T11:25:20.070Z,43.65
2022-11-24T11:35:49.538Z,42.78
2022-11-24T11:40:54.523Z,43.90
2022-11-24T11:46:02.345Z,42.61
2022-11-24T11:51:24.252Z,42.95
2022-11-24T11:56:32.244Z,42.94
2022-11-24T12:02:01.038Z,42.42
2022-11-24T12:07:26.216Z,42.12
2022-11-24T12:12:51.481Z,42.56
2022-11-24T12:17:58.987Z,42.38
2022-11-24T12:23:09.588Z,42.07
2022-11-24T12:28:25.825Z,42.73
2022-11-24T12:34:00.965Z,41.87
2022-11-24T12:39:07.607Z,41.87
2022-11-24T12:44:26.462Z,42.15
2022-11-24T12:49:35.310Z,42.47
2022-11-24T12:54:41.310Z,42.59
2022-11-24T12:59:53.173Z,43.04
2022-11-24T13:05:06.998Z,42.59
2022-11-24T13:10:54.623Z,43.34
2022-11-24T13:22:00.975Z,44.49
2022-11-24T13:27:28.688Z,43.82
2022-11-24T13:33:04.185Z,42.97
2022-11-24T13:38:40.363Z,43.71
2022-11-24T13:44:23.002Z,42.73
2022-11-24T13:49:38.775Z,43.60
2022-11-24T13:54:42.408Z,44.24
2022-11-24T13:59:45.905Z,44.14
2022-11-24T14:04:50.746Z,43.66
2022-11-24T14:09:54.530Z,44.26
2022-11-24T14:15:21.684Z,44.20
2022-11-24T14:20:28.472Z,44.80
2022-11-24T14:25:32.591Z,44.85
2022-11-24T14:30:36.261Z,45.04
2022-11-24T14:35:45.719Z,45.11
2022-11-24T14:40:51.275Z,44.38
2022-11-24T14:45:57.361Z,44.36
2022-11-24T14:51:15.048Z,44.21
2022-11-24T14:56:24.440Z,43.99
2022-11-24T15:01:33.804Z,44.04
2022-11-24T15:06:38.876Z,43.84
2022-11-24T15:11:42.271Z,44.12
2022-11-24T15:16:45.679Z,44.73
2022-11-24T15:21:50.524Z,44.77
2022-11-24T15:27:00.597Z,44.13
2022-11-24T15:32:13.498Z,43.74
2022-11-24T15:37:18.416Z,44.00
2022-11-24T15:42:21.837Z,44.83
2022-11-24T15:47:25.298Z,44.41
2022-11-24T15:52:30.207Z,45.86
2022-11-24T15:57:34.399Z,46.22
2022-11-24T16:02:38.000Z,46.56
2022-11-24T16:07:43.124Z,46.11
2022-11-24T16:12:46.570Z,46.67
2022-11-24T16:17:50.080Z,46.10
2022-11-24T16:22:55.289Z,47.08
2022-11-24T16:27:58.980Z,47.43
2022-11-24T16:33:04.471Z,47.04
2022-11-24T16:38:12.790Z,47.63
2022-11-24T16:43:16.218Z,46.74
2022-11-24T16:48:19.741Z,47.30
2022-11-24T16:53:24.814Z,47.01
2022-11-24T16:58:28.308Z,47.23
2022-11-24T17:03:33.416Z,46.86
2022-11-24T17:08:39.789Z,46.83
2022-11-24T17:13:44.015Z,46.57
2022-11-24T17:18:47.542Z,46.61
2022-11-24T17:23:56.157Z,46.91
2022-11-24T17:29:00.182Z,46.69
2022-11-24T17:34:05.219Z,46.11
2022-11-24T17:39:11.108Z,45.81
2022-11-24T17:44:14.533Z,45.93
2022-11-24T17:49:18.372Z,45.80
2022-11-24T17:59:46.687Z,46.18
2022-11-24T18:04:50.109Z,46.02
2022-11-24T18:09:54.933Z,46.85
2022-11-24T18:14:58.372Z,46.88
2022-11-24T18:20:01.764Z,46.40
2022-11-24T18:25:07.842Z,46.46
2022-11-24T18:30:11.404Z,46.57
2022-11-24T18:35:14.836Z,46.88
2022-11-24T18:40:35.488Z,46.74
2022-11-24T18:45:40.755Z,46.43
2022-11-24T18:50:44.527Z,46.70
2022-11-24T18:55:56.919Z,46.71
2022-11-24T19:01:08.846Z,46.62
2022-11-24T19:06:15.638Z,46.77
2022-11-24T19:11:20.442Z,46.27
2022-11-24T19:16:25.727Z,46.71
2022-11-24T19:21:29.931Z,46.55
2022-11-24T19:26:34.765Z,47.37
2022-11-24T19:31:40.433Z,46.85
2022-11-24T19:36:44.234Z,47.01
2022-11-24T19:41:47.968Z,47.28
2022-11-24T19:46:52.937Z,47.48
2022-11-24T19:51:56.591Z,47.62
2022-11-24T19:57:00.266Z,48.06
2022-11-24T20:02:08.272Z,48.47
2022-11-24T20:07:11.961Z,48.49
2022-11-24T20:12:16.292Z,48.68
2022-11-24T20:17:21.298Z,48.85
2022-11-24T20:22:25.081Z,48.59
2022-11-24T20:27:28.725Z,48.67
2022-11-24T20:32:33.750Z,49.16
2022-11-24T20:37:37.555Z,48.93
2022-11-24T20:42:41.275Z,48.79
2022-11-24T20:47:49.979Z,48.62
2022-11-24T20:52:53.597Z,48.44
2022-11-24T20:57:57.968Z,49.22
2022-11-24T21:03:03.242Z,48.65
2022-11-24T21:08:09.734Z,48.45
2022-11-24T21:13:13.458Z,49.34
2022-11-24T21:18:18.928Z,50.11
2022-11-24T21:23:22.535Z,49.50
2022-11-24T21:28:26.216Z,49.63
2022-11-24T21:33:31.581Z,49.30
2022-11-24T21:38:36.004Z,49.27
2022-11-24T21:43:40.450Z,49.31
2022-11-24T21:48:45.986Z,49.29
2022-11-24T21:53:52.636Z,48.90
2022-11-24T21:58:58.150Z,48.90
2022-11-24T22:04:03.507Z,48.92
2022-11-24T22:09:07.323Z,49.02
2022-11-24T22:14:11.300Z,49.51
2022-11-24T22:19:16.323Z,49.17
2022-11-24T22:24:35.938Z,50.30
2022-11-24T22:29:39.709Z,50.11
2022-11-24T22:34:44.841Z,50.01
2022-11-24T22:39:48.518Z,50.35
2022-11-24T22:44:52.507Z,50.10
2022-11-24T22:49:57.700Z,50.46
2022-11-24T22:55:01.347Z,50.33
2022-11-24T23:00:06.166Z,49.91
2022-11-24T23:05:11.265Z,49.91
2022-11-24T23:10:14.915Z,49.84
2022-11-24T23:15:18.707Z,50.49
2022-11-24T23:20:23.853Z,51.55
2022-11-24T23:25:27.439Z,51.29
2022-11-24T23:30:31.077Z,51.07
2022-11-24T23:35:36.232Z,51.15
2022-11-24T23:40:39.858Z,50.51
2022-11-24T23:45:43.584Z,50.47
2022-11-24T23:50:48.675Z,50.14
2022-11-24T23:55:55.439Z,50.21
